Terminal Aerodrome Forecast
Issued by NWS

Home | Current Version | Previous Version | Text Only | Print | Product List | Glossary On
Versions: 1 2 3 4 5 6 7 8 9 10 11 12 13 14 15 16 17
000
FTUS42 KTAE 021500 AAD
TAFECP
TAF AMD
KECP 021539Z 0216/0312 00000KT P6SM OVC006
     FM021800 17005KT P6SM BKN015
     FM030000 18006KT P6SM OVC050
     FM030600 00000KT 5SM BR OVC100=

USA.gov is the U.S. government's official web portal to all federal, state and local government web resources and services.